createdAt,value
2018-11-28T00:01:10.056Z,83.30
2018-11-28T00:03:40.299Z,83.37
2018-11-28T00:06:09.882Z,82.97
2018-11-28T00:08:39.366Z,83.66
2018-11-28T00:11:09.038Z,84.52
2018-11-28T00:13:40.071Z,84.08
2018-11-28T00:16:09.592Z,84.03
2018-11-28T00:18:40.003Z,84.13
2018-11-28T00:21:09.603Z,83.66
2018-11-28T00:23:39.264Z,83.74
2018-11-28T00:26:09.045Z,84.59
2018-11-28T00:28:38.851Z,83.89
2018-11-28T00:31:11.336Z,84.29
2018-11-28T00:33:40.983Z,84.47
2018-11-28T00:36:10.586Z,84.11
2018-11-28T00:38:40.256Z,83.81
2018-11-28T00:41:22.667Z,84.64
2018-11-28T00:43:52.390Z,84.56
2018-11-28T00:46:23.888Z,84.45
2018-11-28T00:48:54.186Z,84.39
2018-11-28T00:51:23.957Z,84.35
2018-11-28T00:53:54.499Z,84.01
2018-11-28T00:56:25.846Z,83.79
2018-11-28T00:58:56.765Z,84.01
2018-11-28T01:01:27.638Z,84.08
2018-11-28T01:03:57.558Z,83.74
2018-11-28T01:06:27.954Z,84.45
2018-11-28T01:08:58.181Z,84.81
2018-11-28T01:11:27.864Z,84.75
2018-11-28T01:13:58.389Z,84.33
2018-11-28T01:16:29.447Z,84.76
2018-11-28T01:18:59.585Z,84.48
2018-11-28T01:21:29.784Z,84.27
2018-11-28T01:24:00.323Z,83.79
2018-11-28T01:26:29.929Z,84.38
2018-11-28T01:28:59.565Z,84.38
2018-11-28T01:31:29.163Z,84.54
2018-11-28T01:33:58.863Z,84.71
2018-11-28T01:36:28.454Z,84.71
2018-11-28T01:38:59.205Z,84.46
2018-11-28T01:41:28.872Z,82.02
2018-11-28T01:44:00.198Z,81.78
2018-11-28T01:46:31.052Z,83.43
2018-11-28T01:49:02.032Z,84.13
2018-11-28T01:51:31.659Z,85.21
2018-11-28T01:54:02.061Z,83.37
2018-11-28T01:56:34.881Z,81.94
2018-11-28T01:59:04.438Z,81.65
2018-11-28T02:01:35.370Z,81.41
2018-11-28T02:05:29.540Z,80.61
2018-11-28T02:07:59.089Z,80.35
2018-11-28T02:10:28.783Z,80.53
2018-11-28T02:12:58.609Z,81.25
2018-11-28T02:15:28.804Z,81.79
2018-11-28T02:17:58.878Z,82.71
2018-11-28T02:20:28.617Z,83.34
2018-11-28T02:23:01.951Z,83.38
2018-11-28T02:25:31.957Z,83.70
2018-11-28T02:28:02.298Z,84.02
2018-11-28T02:30:34.557Z,84.10
2018-11-28T02:33:04.799Z,84.69
2018-11-28T02:35:34.694Z,84.68
2018-11-28T02:38:04.244Z,84.16
2018-11-28T02:40:33.809Z,83.50
2018-11-28T02:43:05.659Z,83.03
2018-11-28T02:45:49.143Z,82.63
2018-11-28T02:48:18.804Z,82.99
2018-11-28T02:50:48.506Z,83.57
2018-11-28T02:53:19.446Z,83.48
2018-11-28T02:55:49.297Z,83.29
2018-11-28T02:58:18.991Z,83.15
2018-11-28T03:00:48.636Z,82.89
2018-11-28T03:03:19.797Z,83.09
2018-11-28T03:05:50.387Z,82.90
2018-11-28T03:08:21.070Z,83.38
2018-11-28T03:10:51.755Z,83.57
2018-11-28T03:13:22.051Z,83.46
2018-11-28T03:15:54.903Z,83.42
2018-11-28T03:18:25.463Z,83.35
2018-11-28T03:20:56.571Z,83.18
2018-11-28T03:23:28.062Z,83.49
2018-11-28T03:26:09.996Z,83.53
2018-11-28T03:28:39.849Z,84.10
2018-11-28T03:31:10.309Z,83.91
2018-11-28T03:33:42.980Z,83.67
2018-11-28T03:36:14.434Z,83.92
2018-11-28T03:38:44.896Z,83.62
2018-11-28T03:41:14.378Z,83.97
2018-11-28T03:43:52.080Z,83.71
2018-11-28T03:46:34.461Z,83.76
2018-11-28T03:49:03.810Z,84.23
2018-11-28T03:51:33.237Z,84.21
2018-11-28T03:54:02.594Z,84.45
2018-11-28T03:56:32.005Z,84.88
2018-11-28T03:59:01.531Z,84.55
2018-11-28T04:01:30.855Z,84.20
2018-11-28T04:04:18.095Z,83.86
2018-11-28T04:06:47.770Z,83.96
2018-11-28T04:09:17.564Z,83.68
2018-11-28T04:11:46.951Z,83.47
2018-11-28T04:14:16.399Z,83.78
2018-11-28T04:16:45.807Z,83.71
2018-11-28T04:19:15.297Z,83.49
2018-11-28T04:21:44.815Z,83.80
2018-11-28T04:24:15.110Z,83.67
2018-11-28T04:26:44.533Z,83.43
2018-11-28T04:29:14.300Z,83.27
2018-11-28T04:31:44.100Z,83.39
2018-11-28T04:34:13.434Z,83.33
2018-11-28T04:36:42.965Z,83.31
2018-11-28T04:39:12.485Z,83.70
2018-11-28T04:41:41.980Z,83.63
2018-11-28T04:44:11.480Z,84.00
2018-11-28T04:46:40.800Z,84.19
2018-11-28T04:49:10.369Z,83.72
2018-11-28T04:51:39.745Z,83.73
2018-11-28T04:54:09.407Z,83.60
2018-11-28T04:56:39.010Z,83.67
2018-11-28T04:59:08.417Z,83.73
2018-11-28T05:01:37.957Z,84.42
2018-11-28T05:04:07.483Z,84.43
2018-11-28T05:19:39.580Z,83.58
2018-11-28T05:22:09.592Z,84.37
2018-11-28T05:24:39.974Z,84.25
2018-11-28T05:27:09.416Z,84.20
2018-11-28T05:29:39.031Z,84.80
2018-11-28T05:32:09.139Z,84.27
2018-11-28T05:34:38.576Z,84.02
2018-11-28T05:37:09.389Z,84.05
2018-11-28T05:39:38.823Z,84.14
2018-11-28T05:42:14.868Z,84.14
2018-11-28T05:44:44.795Z,83.83
2018-11-28T05:47:14.266Z,83.90
2018-11-28T05:49:43.725Z,84.15
2018-11-28T05:52:13.432Z,84.09
2018-11-28T05:54:43.541Z,83.87
2018-11-28T05:57:15.057Z,83.56
2018-11-28T05:59:44.821Z,83.94
2018-11-28T06:02:14.380Z,84.10
2018-11-28T06:04:43.905Z,84.83
2018-11-28T06:07:18.427Z,84.18
2018-11-28T06:09:47.891Z,84.06
2018-11-28T06:12:17.233Z,84.00
2018-11-28T06:14:46.849Z,84.26
2018-11-28T06:17:17.324Z,84.05
2018-11-28T06:19:46.784Z,83.71
2018-11-28T06:22:16.462Z,83.92
2018-11-28T06:24:45.899Z,84.38
2018-11-28T06:27:15.168Z,84.27
2018-11-28T06:29:44.437Z,84.32
2018-11-28T06:32:13.869Z,84.43
2018-11-28T06:34:43.370Z,84.00
2018-11-28T06:37:12.799Z,84.71
2018-11-28T06:39:42.148Z,84.11
2018-11-28T06:42:11.619Z,84.69
2018-11-28T06:44:40.922Z,84.26
2018-11-28T06:47:11.745Z,84.24
2018-11-28T06:49:41.400Z,84.12
2018-11-28T06:52:11.219Z,83.86
2018-11-28T06:54:40.784Z,83.63
2018-11-28T06:57:10.331Z,83.19
2018-11-28T06:59:40.166Z,83.22
2018-11-28T07:02:09.553Z,83.51
2018-11-28T07:04:38.943Z,83.32
2018-11-28T07:07:08.260Z,83.67
2018-11-28T07:09:38.048Z,83.18
2018-11-28T07:12:07.490Z,83.35
2018-11-28T07:14:36.888Z,83.31
2018-11-28T07:17:07.283Z,82.69
2018-11-28T07:19:36.642Z,83.23
2018-11-28T07:22:06.298Z,83.47
2018-11-28T07:24:35.990Z,83.89
2018-11-28T07:27:05.947Z,83.78
2018-11-28T07:29:35.326Z,83.83
2018-11-28T07:32:09.713Z,83.50
2018-11-28T07:34:39.379Z,83.36
2018-11-28T07:37:08.671Z,83.79
2018-11-28T07:39:38.191Z,83.97
2018-11-28T07:42:08.552Z,84.12
2018-11-28T07:44:42.070Z,83.94
2018-11-28T07:47:11.416Z,83.92
2018-11-28T07:49:40.675Z,84.48
2018-11-28T07:52:10.092Z,84.43
2018-11-28T07:54:39.365Z,84.56
2018-11-28T07:57:08.732Z,84.45
2018-11-28T07:59:38.388Z,84.72
2018-11-28T08:02:08.913Z,84.57
2018-11-28T08:04:38.414Z,84.73
2018-11-28T08:07:07.995Z,84.50
2018-11-28T08:09:37.338Z,84.68
2018-11-28T08:12:07.868Z,83.90
2018-11-28T08:17:17.685Z,83.97
2018-11-28T08:19:47.485Z,83.74
2018-11-28T08:22:17.258Z,83.30
2018-11-28T08:24:47.451Z,83.87
2018-11-28T08:27:17.655Z,83.84
2018-11-28T08:29:47.609Z,83.35
2018-11-28T08:32:17.486Z,82.98
2018-11-28T08:34:47.777Z,83.33
2018-11-28T08:37:17.678Z,83.50
2018-11-28T08:39:47.592Z,83.32
2018-11-28T08:42:17.484Z,83.70
2018-11-28T08:44:53.368Z,83.73
2018-11-28T08:47:23.520Z,84.05
2018-11-28T08:49:53.527Z,84.02
2018-11-28T08:52:24.043Z,84.20
2018-11-28T09:18:32.017Z,82.20
2018-11-28T09:21:02.163Z,82.49
2018-11-28T09:23:32.284Z,82.44
2018-11-28T09:26:02.294Z,82.40
2018-11-28T09:28:32.627Z,82.33
2018-11-28T09:31:02.820Z,81.64
2018-11-28T09:33:32.866Z,81.15
2018-11-28T09:36:06.452Z,81.37
2018-11-28T09:38:36.322Z,81.11
2018-11-28T09:41:06.528Z,80.52
2018-11-28T09:43:37.526Z,79.95
2018-11-28T09:46:07.967Z,79.40
2018-11-28T09:48:38.690Z,77.94
2018-11-28T09:51:09.269Z,77.84
2018-11-28T09:53:39.141Z,77.11
2018-11-28T09:56:09.221Z,76.96
2018-11-28T09:58:39.698Z,76.82
2018-11-28T10:01:11.252Z,76.62
2018-11-28T10:03:41.671Z,76.53
2018-11-28T10:06:14.410Z,76.19
2018-11-28T10:08:44.455Z,75.90
2018-11-28T10:11:14.441Z,74.63
2018-11-28T10:13:45.259Z,75.37
2018-11-28T10:16:16.709Z,73.92
2018-11-28T10:18:46.562Z,73.34
2018-11-28T10:21:16.488Z,73.77
2018-11-28T10:23:46.449Z,73.17
2018-11-28T10:26:16.770Z,72.58
2018-11-28T10:28:46.813Z,72.75
2018-11-28T10:31:16.869Z,72.20
2018-11-28T10:33:46.995Z,72.21
2018-11-28T10:36:20.180Z,72.59
2018-11-28T10:38:50.459Z,71.99
2018-11-28T10:41:20.859Z,72.07
2018-11-28T10:43:50.726Z,70.69
2018-11-28T10:46:20.644Z,71.21
2018-11-28T10:48:50.933Z,70.17
2018-11-28T10:51:21.465Z,69.18
2018-11-28T10:53:51.530Z,69.10
2018-11-28T10:56:21.487Z,68.06
2018-11-28T10:58:51.143Z,67.06
2018-11-28T11:01:26.468Z,65.75
2018-11-28T11:04:00.449Z,65.66
2018-11-28T11:06:35.638Z,65.25
2018-11-28T11:09:13.121Z,65.43
2018-11-28T11:11:48.262Z,64.18
2018-11-28T11:14:23.183Z,64.38
2018-11-28T11:16:53.779Z,64.09
2018-11-28T11:19:23.799Z,63.28
2018-11-28T11:21:54.183Z,62.98
2018-11-28T11:24:24.300Z,62.32
2018-11-28T11:26:54.409Z,62.20
2018-11-28T11:29:25.567Z,61.94
2018-11-28T11:31:55.988Z,62.16
2018-11-28T11:34:26.197Z,61.65
2018-11-28T11:37:08.526Z,61.11
2018-11-28T11:39:39.028Z,60.50
2018-11-28T11:42:09.421Z,60.40
2018-11-28T11:44:40.114Z,60.28
2018-11-28T11:47:10.215Z,59.21
2018-11-28T11:49:41.356Z,59.42
2018-11-28T11:52:11.693Z,59.23
2018-11-28T11:54:41.827Z,58.76
2018-11-28T11:57:11.784Z,57.84
2018-11-28T11:59:42.178Z,59.10
2018-11-28T12:02:12.402Z,58.72
2018-11-28T12:04:42.311Z,58.13
2018-11-28T12:07:12.273Z,57.27
2018-11-28T12:09:42.425Z,57.61
2018-11-28T12:12:12.328Z,57.28
2018-11-28T12:14:42.364Z,57.27
2018-11-28T12:17:12.595Z,56.22
2018-11-28T12:19:42.500Z,55.95
2018-11-28T12:22:12.502Z,55.21
2018-11-28T12:24:48.336Z,56.08
2018-11-28T12:27:28.920Z,54.90
2018-11-28T12:29:59.060Z,55.12
2018-11-28T12:32:29.388Z,54.88
2018-11-28T12:34:59.269Z,54.92
2018-11-28T12:37:30.429Z,54.78
2018-11-28T12:40:00.387Z,55.04
2018-11-28T12:42:30.241Z,54.52
2018-11-28T12:45:00.556Z,53.79
2018-11-28T12:47:43.347Z,53.38
2018-11-28T12:50:46.564Z,54.00
2018-11-28T12:53:41.228Z,53.79
2018-11-28T12:56:11.677Z,54.17
2018-11-28T12:58:48.592Z,53.59
2018-11-28T13:01:30.599Z,53.57
2018-11-28T13:04:10.847Z,52.73
2018-11-28T13:06:41.833Z,52.63
2018-11-28T13:09:13.006Z,52.88
2018-11-28T13:11:45.465Z,53.92
2018-11-28T13:14:15.896Z,53.30
2018-11-28T13:16:46.699Z,53.40
2018-11-28T13:19:18.856Z,53.15
2018-11-28T13:21:53.473Z,52.94
2018-11-28T13:24:23.336Z,53.10
2018-11-28T13:26:55.887Z,52.73
2018-11-28T13:29:27.282Z,53.14
2018-11-28T13:32:05.535Z,53.01
2018-11-28T13:34:36.008Z,53.55
2018-11-28T13:37:10.504Z,54.00
2018-11-28T13:39:42.720Z,53.41
2018-11-28T13:42:12.404Z,54.43
2018-11-28T13:44:41.873Z,55.03
2018-11-28T13:47:12.868Z,55.00
2018-11-28T13:49:42.232Z,55.20
2018-11-28T13:52:11.972Z,55.55
2018-11-28T13:55:36.990Z,56.04
2018-11-28T13:57:12.438Z,55.65
2018-11-28T13:59:41.941Z,56.52
2018-11-28T14:02:12.705Z,56.61
2018-11-28T14:04:42.902Z,57.18
2018-11-28T14:07:12.166Z,56.87
2018-11-28T14:09:41.395Z,58.02
2018-11-28T14:12:11.997Z,58.37
2018-11-28T14:14:41.965Z,58.92
2018-11-28T14:17:12.737Z,58.86
2018-11-28T14:19:42.229Z,58.84
2018-11-28T14:22:12.291Z,58.24
2018-11-28T14:24:43.363Z,58.70
2018-11-28T14:27:13.754Z,57.91
2018-11-28T14:29:44.401Z,58.45
2018-11-28T14:32:13.853Z,58.48
2018-11-28T14:34:44.222Z,59.53
2018-11-28T14:37:13.880Z,59.15
2018-11-28T14:39:48.744Z,59.97
2018-11-28T14:42:18.954Z,59.60
2018-11-28T14:44:51.017Z,59.79
2018-11-28T14:47:22.483Z,60.32
2018-11-28T14:49:52.670Z,60.60
2018-11-28T14:52:22.667Z,61.00
2018-11-28T14:54:52.147Z,61.40
2018-11-28T14:57:21.598Z,61.72
2018-11-28T14:59:54.957Z,60.98
2018-11-28T15:02:24.707Z,62.20
2018-11-28T15:04:55.234Z,62.63
2018-11-28T15:07:26.527Z,63.24
2018-11-28T15:10:01.448Z,63.08
2018-11-28T15:12:31.532Z,63.16
2018-11-28T15:15:03.395Z,63.42
2018-11-28T15:17:33.771Z,64.36
2018-11-28T15:20:09.922Z,64.02
2018-11-28T15:22:40.931Z,65.23
2018-11-28T15:25:12.005Z,65.40
2018-11-28T15:27:42.902Z,65.85
2018-11-28T15:30:12.604Z,65.74
2018-11-28T15:32:42.674Z,65.26
2018-11-28T15:35:12.186Z,66.23
2018-11-28T15:37:42.092Z,65.94
2018-11-28T15:40:12.014Z,66.75
2018-11-28T15:42:41.499Z,66.51
2018-11-28T15:45:15.722Z,67.10
2018-11-28T15:47:46.447Z,67.16
2018-11-28T15:50:16.744Z,66.85
2018-11-28T15:52:47.680Z,67.00
2018-11-28T15:55:19.085Z,67.62
2018-11-28T15:57:49.733Z,67.45
2018-11-28T16:00:22.445Z,67.37
2018-11-28T16:02:52.790Z,67.86
2018-11-28T16:05:22.403Z,67.87
2018-11-28T16:07:53.922Z,68.11
2018-11-28T16:10:30.102Z,68.12
2018-11-28T16:13:01.561Z,68.28
2018-11-28T16:15:34.896Z,68.01
2018-11-28T16:18:05.807Z,68.45
2018-11-28T16:20:36.649Z,67.63
2018-11-28T16:23:12.075Z,68.17
2018-11-28T16:25:44.147Z,67.69
2018-11-28T16:28:14.447Z,67.65
2018-11-28T16:30:54.952Z,68.11
2018-11-28T16:33:30.187Z,68.31
2018-11-28T16:36:01.152Z,67.85
2018-11-28T16:38:31.020Z,67.71
2018-11-28T16:41:02.761Z,68.14
2018-11-28T16:43:33.105Z,67.75
2018-11-28T16:46:03.347Z,67.86
2018-11-28T16:48:34.468Z,68.23
2018-11-28T16:51:04.921Z,68.41
2018-11-28T16:53:36.169Z,67.75
2018-11-28T16:56:06.856Z,68.25
2018-11-28T16:58:38.247Z,68.48
2018-11-28T17:01:07.907Z,68.37
2018-11-28T17:03:37.532Z,67.99
2018-11-28T17:06:11.717Z,68.11
2018-11-28T17:08:41.049Z,68.01
2018-11-28T17:11:11.441Z,68.35
2018-11-28T17:13:41.148Z,68.18
2018-11-28T17:16:14.173Z,68.41
2018-11-28T17:18:46.587Z,68.51
2018-11-28T17:21:17.578Z,68.31
2018-11-28T17:23:49.050Z,68.85
2018-11-28T17:26:19.893Z,68.82
2018-11-28T17:28:50.016Z,68.72
2018-11-28T17:31:23.316Z,68.69
2018-11-28T17:33:52.945Z,68.82
2018-11-28T17:36:23.572Z,68.42
2018-11-28T17:38:53.298Z,68.52
2018-11-28T17:41:29.893Z,68.70
2018-11-28T17:45:30.838Z,69.03
2018-11-28T17:48:02.374Z,69.10
2018-11-28T17:50:32.481Z,69.14
2018-11-28T17:53:09.081Z,69.24
2018-11-28T17:55:47.489Z,69.14
2018-11-28T17:58:21.254Z,69.06
2018-11-28T18:00:59.464Z,69.18
2018-11-28T18:03:43.066Z,69.41
2018-11-28T18:06:41.557Z,69.04
2018-11-28T18:09:13.775Z,69.19
2018-11-28T18:11:43.302Z,69.33
2018-11-28T18:14:14.128Z,69.50
2018-11-28T18:16:45.098Z,69.38
2018-11-28T18:19:22.778Z,69.45
2018-11-28T18:21:53.631Z,69.55
2018-11-28T18:24:23.777Z,69.95
2018-11-28T18:26:53.891Z,69.99
2018-11-28T18:29:25.830Z,69.72
2018-11-28T18:31:55.891Z,70.41
2018-11-28T18:34:27.289Z,70.61
2018-11-28T18:36:58.969Z,70.17
2018-11-28T18:39:29.532Z,70.62
2018-11-28T18:41:59.551Z,70.33
2018-11-28T18:44:36.421Z,70.53
2018-11-28T18:47:08.811Z,70.65
2018-11-28T18:49:38.456Z,70.85
2018-11-28T18:52:07.965Z,70.82
2018-11-28T18:54:38.012Z,70.63
2018-11-28T18:57:08.857Z,70.25
2018-11-28T18:59:38.355Z,70.07
2018-11-28T19:02:08.028Z,70.22
2018-11-28T19:04:38.314Z,69.89
2018-11-28T19:07:07.650Z,70.09
2018-11-28T19:09:42.973Z,69.73
2018-11-28T19:12:12.734Z,69.39
2018-11-28T19:14:42.411Z,69.21
2018-11-28T19:17:11.962Z,69.12
2018-11-28T19:19:43.781Z,69.09
2018-11-28T19:22:14.495Z,68.88
2018-11-28T19:24:50.654Z,68.88
2018-11-28T19:27:20.989Z,68.92
2018-11-28T19:29:51.289Z,69.04
2018-11-28T19:32:21.543Z,68.98
2018-11-28T19:34:51.551Z,68.87
2018-11-28T19:37:21.191Z,69.33
2018-11-28T19:39:51.374Z,69.37
2018-11-28T19:45:43.741Z,69.27
2018-11-28T19:48:13.185Z,69.39
2018-11-28T19:50:43.826Z,69.64
2018-11-28T19:53:13.847Z,70.37
2018-11-28T19:55:43.637Z,70.49
2018-11-28T19:58:13.525Z,70.98
2018-11-28T20:00:46.273Z,70.71
2018-11-28T20:03:15.531Z,71.24
2018-11-28T20:05:45.529Z,71.64
2018-11-28T20:08:15.132Z,71.64
2018-11-28T20:10:44.428Z,72.17
2018-11-28T20:13:13.799Z,72.14
2018-11-28T20:15:44.998Z,72.68
2018-11-28T20:18:14.374Z,72.69
2018-11-28T20:20:44.694Z,72.56
2018-11-28T20:23:14.103Z,73.20
2018-11-28T20:25:44.189Z,73.32
2018-11-28T20:28:13.599Z,73.31
2018-11-28T20:30:44.534Z,73.46
2018-11-28T20:33:16.118Z,73.07
2018-11-28T20:35:46.802Z,73.59
2018-11-28T20:38:19.556Z,73.62
2018-11-28T20:40:48.933Z,73.82
2018-11-28T20:43:18.529Z,73.25
2018-11-28T20:45:47.877Z,73.68
2018-11-28T20:48:17.286Z,73.83
2018-11-28T20:50:46.657Z,73.57
2018-11-28T20:53:17.671Z,73.94
2018-11-28T20:55:47.963Z,73.79
2018-11-28T20:58:17.301Z,74.12
2018-11-28T21:00:46.795Z,74.09
2018-11-28T21:03:16.586Z,74.36
2018-11-28T21:05:45.945Z,74.26
2018-11-28T21:08:15.349Z,74.44
2018-11-28T21:10:44.792Z,74.28
2018-11-28T21:13:14.802Z,74.33
2018-11-28T21:15:46.149Z,73.82
2018-11-28T21:18:18.903Z,73.96
2018-11-28T21:20:48.584Z,73.80
2018-11-28T21:23:19.389Z,73.94
2018-11-28T21:25:49.290Z,74.06
2018-11-28T21:28:18.730Z,73.92
2018-11-28T21:30:51.251Z,74.04
2018-11-28T21:33:21.561Z,73.79
2018-11-28T21:35:52.355Z,73.65
2018-11-28T21:38:21.797Z,73.92
2018-11-28T21:40:51.141Z,73.65
2018-11-28T21:43:20.853Z,74.17
2018-11-28T21:45:50.306Z,73.91
2018-11-28T21:48:20.397Z,73.80
2018-11-28T21:50:49.729Z,73.88
2018-11-28T21:53:19.066Z,73.76
2018-11-28T21:55:48.368Z,74.15
2018-11-28T21:58:17.987Z,74.21
2018-11-28T22:00:47.362Z,73.49
2018-11-28T22:03:16.746Z,73.67
2018-11-28T22:05:47.102Z,73.15
2018-11-28T22:08:16.446Z,73.50
2018-11-28T22:19:56.166Z,73.28
2018-11-28T22:22:25.699Z,73.32
2018-11-28T22:24:54.973Z,73.01
2018-11-28T22:27:24.434Z,72.77
2018-11-28T22:29:53.905Z,73.54
2018-11-28T22:32:23.143Z,73.57
2018-11-28T22:34:52.617Z,73.37
2018-11-28T22:37:21.939Z,72.91
2018-11-28T22:39:51.309Z,73.11
2018-11-28T22:42:20.888Z,72.89
2018-11-28T22:44:50.189Z,73.01
2018-11-28T22:47:19.646Z,73.30
2018-11-28T22:49:49.608Z,72.96
2018-11-28T22:52:24.494Z,73.28
2018-11-28T22:54:53.801Z,73.40
2018-11-28T22:57:23.214Z,73.02
2018-11-28T22:59:53.394Z,73.20
2018-11-28T23:02:49.805Z,73.18
2018-11-28T23:05:19.380Z,73.54
2018-11-28T23:07:48.943Z,72.88
2018-11-28T23:10:18.345Z,73.25
2018-11-28T23:12:47.623Z,73.16
2018-11-28T23:15:16.974Z,73.41
2018-11-28T23:17:46.441Z,73.78
2018-11-28T23:20:17.190Z,73.72
2018-11-28T23:22:46.533Z,73.98
2018-11-28T23:25:15.947Z,74.03
2018-11-28T23:27:45.638Z,74.34
2018-11-28T23:30:17.869Z,74.63
2018-11-28T23:32:47.928Z,74.50
2018-11-28T23:35:17.527Z,74.41
2018-11-28T23:37:47.975Z,74.12
2018-11-28T23:40:23.293Z,74.49
2018-11-28T23:42:53.417Z,74.77
2018-11-28T23:45:22.966Z,74.34
2018-11-28T23:47:52.301Z,74.85
2018-11-28T23:50:25.564Z,74.82
2018-11-28T23:52:55.806Z,74.64
2018-11-28T23:55:28.377Z,74.47
2018-11-28T23:57:58.483Z,74.97
